createdAt,value
2022-12-31T00:00:48.053Z,93.51
2022-12-31T00:03:51.081Z,92.88
2022-12-31T00:06:53.368Z,92.56
2022-12-31T00:09:57.307Z,92.55
2022-12-31T00:12:59.567Z,92.15
2022-12-31T00:16:14.437Z,92.26
2022-12-31T00:19:16.640Z,91.97
2022-12-31T00:22:18.867Z,91.99
2022-12-31T00:25:21.114Z,92.13
2022-12-31T00:28:23.391Z,92.14
2022-12-31T00:31:35.709Z,92.59
2022-12-31T00:34:37.963Z,92.84
2022-12-31T00:37:40.165Z,92.26
2022-12-31T00:40:42.361Z,92.37
2022-12-31T00:43:51.420Z,92.17
2022-12-31T00:46:59.903Z,91.86
2022-12-31T00:50:02.186Z,91.63
2022-12-31T00:53:04.474Z,91.22
2022-12-31T00:56:10.187Z,91.03
2022-12-31T00:59:12.464Z,90.64
2022-12-31T01:02:14.937Z,90.31
2022-12-31T01:05:17.353Z,90.54
2022-12-31T01:08:19.559Z,90.43
2022-12-31T01:11:22.938Z,90.13
2022-12-31T01:14:25.277Z,90.14
2022-12-31T01:17:27.864Z,90.45
2022-12-31T01:20:30.189Z,90.42
2022-12-31T01:23:32.662Z,90.41
2022-12-31T01:26:35.016Z,90.35
2022-12-31T01:29:37.226Z,90.12
2022-12-31T01:32:39.470Z,90.01
2022-12-31T01:35:41.692Z,90.05
2022-12-31T01:38:44.637Z,89.93
2022-12-31T01:41:47.825Z,89.71
2022-12-31T01:44:54.094Z,90.09
2022-12-31T01:47:59.652Z,89.87
2022-12-31T01:51:02.048Z,89.85
2022-12-31T01:54:08.236Z,89.96
2022-12-31T01:57:11.993Z,89.59
2022-12-31T02:00:15.074Z,89.84
2022-12-31T02:03:21.626Z,90.40
2022-12-31T02:06:33.934Z,90.44
2022-12-31T02:09:38.581Z,90.72
2022-12-31T02:12:41.026Z,90.94
2022-12-31T02:16:00.422Z,91.15
2022-12-31T02:19:14.560Z,91.63
2022-12-31T02:22:47.914Z,91.32
2022-12-31T02:26:15.643Z,90.86
2022-12-31T02:29:50.799Z,90.72
2022-12-31T02:33:07.826Z,90.52
2022-12-31T02:36:22.676Z,90.51
2022-12-31T02:39:25.024Z,90.75
2022-12-31T02:42:27.229Z,90.68
2022-12-31T02:46:08.880Z,90.87
2022-12-31T02:49:18.951Z,90.95
2022-12-31T02:52:32.989Z,90.91
2022-12-31T02:55:39.326Z,90.79
2022-12-31T02:59:24.352Z,90.83
2022-12-31T03:02:30.164Z,91.02
2022-12-31T03:05:37.999Z,90.89
2022-12-31T03:09:02.413Z,90.98
2022-12-31T03:12:24.703Z,90.76
2022-12-31T03:15:28.119Z,90.75
2022-12-31T03:18:56.721Z,90.57
2022-12-31T03:22:17.843Z,90.95
2022-12-31T03:25:35.803Z,90.91
2022-12-31T03:28:40.471Z,91.07
2022-12-31T03:31:42.728Z,91.28
2022-12-31T03:34:44.949Z,91.41
2022-12-31T03:37:48.942Z,91.92
2022-12-31T03:40:52.932Z,91.93
2022-12-31T03:43:55.145Z,91.92
2022-12-31T03:46:57.379Z,92.40
2022-12-31T03:49:59.675Z,92.49
2022-12-31T03:53:02.306Z,92.62
2022-12-31T03:56:04.937Z,92.52
2022-12-31T03:59:07.157Z,92.57
2022-12-31T04:02:09.581Z,93.20
2022-12-31T04:05:12.759Z,93.17
2022-12-31T04:08:14.960Z,93.40
2022-12-31T04:11:20.772Z,93.23
2022-12-31T04:14:23.546Z,93.73
2022-12-31T04:17:26.402Z,94.77
2022-12-31T04:20:28.660Z,94.52
2022-12-31T04:23:31.497Z,94.74
2022-12-31T04:26:34.797Z,94.51
2022-12-31T04:29:37.121Z,94.24
2022-12-31T04:32:39.349Z,93.94
2022-12-31T04:35:41.558Z,94.16
2022-12-31T04:38:43.784Z,94.06
2022-12-31T04:41:45.975Z,94.12
2022-12-31T04:44:48.216Z,94.38
2022-12-31T04:47:50.369Z,94.53
2022-12-31T04:50:53.229Z,94.46
2022-12-31T04:53:55.838Z,95.37
2022-12-31T04:56:58.110Z,95.88
2022-12-31T05:00:00.333Z,95.91
2022-12-31T05:03:03.919Z,96.06
2022-12-31T05:06:20.933Z,96.12
2022-12-31T05:09:24.231Z,96.63
2022-12-31T05:12:26.518Z,96.89
2022-12-31T05:15:29.734Z,97.32
2022-12-31T05:18:33.075Z,96.81
2022-12-31T05:21:35.530Z,96.78
2022-12-31T05:24:37.827Z,97.56
2022-12-31T05:27:40.189Z,97.34
2022-12-31T05:30:43.014Z,98.01
2022-12-31T05:33:45.277Z,97.96
2022-12-31T05:36:47.485Z,97.31
2022-12-31T05:39:49.748Z,96.95
2022-12-31T05:42:52.014Z,96.87
2022-12-31T05:45:54.243Z,96.13
2022-12-31T05:48:56.497Z,96.33
2022-12-31T05:51:58.767Z,96.73
2022-12-31T05:55:01.029Z,96.63
2022-12-31T05:58:03.300Z,96.60
2022-12-31T06:01:05.523Z,96.78
2022-12-31T06:04:07.875Z,96.71
2022-12-31T06:07:10.145Z,96.85
2022-12-31T06:10:12.473Z,96.82
2022-12-31T06:13:14.712Z,96.84
2022-12-31T06:16:17.009Z,96.62
2022-12-31T06:19:19.285Z,97.15
2022-12-31T06:22:21.621Z,97.56
2022-12-31T06:25:23.872Z,97.35
2022-12-31T06:28:26.123Z,97.41
2022-12-31T06:31:28.454Z,97.01
2022-12-31T06:34:30.923Z,96.28
2022-12-31T06:37:33.183Z,95.91
2022-12-31T06:40:37.631Z,95.72
2022-12-31T06:43:42.451Z,95.06
2022-12-31T06:46:44.817Z,93.76
2022-12-31T06:49:47.082Z,92.86
2022-12-31T06:52:49.311Z,92.36
2022-12-31T06:55:51.768Z,92.35
2022-12-31T06:58:54.554Z,92.24
2022-12-31T07:02:12.458Z,91.55
2022-12-31T07:05:33.351Z,90.89
2022-12-31T07:08:48.271Z,88.80
2022-12-31T07:12:01.628Z,86.64
2022-12-31T07:15:19.916Z,85.00
2022-12-31T07:18:50.926Z,86.40
2022-12-31T07:22:00.520Z,86.67
2022-12-31T07:25:03.679Z,87.16
2022-12-31T07:28:33.160Z,87.36
2022-12-31T07:32:17.359Z,86.67
2022-12-31T07:35:41.733Z,86.63
2022-12-31T07:39:05.425Z,85.76
2022-12-31T07:42:27.550Z,83.33
2022-12-31T07:45:42.817Z,83.63
2022-12-31T07:48:46.026Z,83.67
2022-12-31T07:51:48.652Z,83.96
2022-12-31T07:54:51.285Z,84.21
2022-12-31T07:58:01.232Z,83.70
2022-12-31T08:01:04.316Z,84.08
2022-12-31T08:04:24.711Z,83.78
2022-12-31T08:07:47.870Z,83.30
2022-12-31T08:11:08.105Z,82.98
2022-12-31T08:14:14.800Z,82.40
2022-12-31T08:17:19.495Z,80.53
2022-12-31T08:20:21.822Z,79.30
2022-12-31T08:23:46.887Z,79.56
2022-12-31T08:27:23.089Z,75.68
2022-12-31T08:30:40.010Z,76.05
2022-12-31T08:34:11.093Z,73.95
2022-12-31T08:37:33.091Z,71.12
2022-12-31T08:40:59.589Z,66.33
2022-12-31T08:44:27.519Z,64.20
2022-12-31T08:47:59.891Z,60.52
2022-12-31T08:51:02.835Z,58.56
2022-12-31T08:54:05.400Z,56.44
2022-12-31T08:57:26.437Z,56.35
2022-12-31T09:00:30.092Z,57.35
2022-12-31T09:03:46.328Z,60.06
2022-12-31T09:06:59.857Z,59.38
2022-12-31T09:10:31.719Z,60.22
2022-12-31T09:13:52.533Z,62.77
2022-12-31T09:17:10.536Z,64.80
2022-12-31T09:20:42.868Z,66.22
2022-12-31T09:23:46.593Z,66.21
2022-12-31T09:27:15.223Z,65.18
2022-12-31T09:30:18.787Z,65.87
2022-12-31T09:33:45.362Z,66.40
2022-12-31T09:36:56.893Z,68.29
2022-12-31T09:40:15.895Z,70.61
2022-12-31T09:44:06.033Z,71.19
2022-12-31T09:47:23.537Z,69.90
2022-12-31T09:50:48.821Z,69.98
2022-12-31T09:54:16.905Z,68.94
2022-12-31T09:57:28.008Z,69.91
2022-12-31T10:00:59.219Z,68.88
2022-12-31T10:04:19.916Z,66.09
2022-12-31T10:07:37.066Z,64.21
2022-12-31T10:10:53.905Z,61.25
2022-12-31T10:14:24.355Z,61.87
2022-12-31T10:17:52.675Z,63.10
2022-12-31T10:21:28.493Z,64.05
2022-12-31T10:24:42.425Z,66.93
2022-12-31T10:28:13.822Z,67.45
2022-12-31T10:31:36.294Z,68.38
2022-12-31T10:34:59.851Z,68.81
2022-12-31T10:38:56.138Z,68.34
2022-12-31T10:42:47.680Z,68.24
2022-12-31T10:45:49.920Z,68.66
2022-12-31T10:49:20.576Z,69.45
2022-12-31T10:52:44.145Z,69.77
2022-12-31T10:56:07.924Z,69.88
2022-12-31T10:59:43.298Z,69.21
2022-12-31T11:03:28.799Z,68.73
2022-12-31T11:07:01.170Z,70.56
2022-12-31T11:10:21.722Z,71.22
2022-12-31T11:13:35.423Z,72.24
2022-12-31T11:17:08.446Z,72.49
2022-12-31T11:20:47.982Z,74.00
2022-12-31T11:24:08.101Z,72.94
2022-12-31T11:27:16.852Z,71.57
2022-12-31T11:30:33.669Z,70.40
2022-12-31T11:33:56.974Z,65.76
2022-12-31T11:37:33.409Z,68.58
2022-12-31T11:40:50.467Z,70.08
2022-12-31T11:44:12.034Z,70.89
2022-12-31T11:47:33.727Z,70.35
2022-12-31T11:50:58.660Z,69.56
2022-12-31T11:54:12.678Z,69.56
2022-12-31T11:57:42.207Z,69.94
2022-12-31T12:01:10.311Z,69.12
2022-12-31T12:04:12.788Z,68.94
2022-12-31T12:07:16.279Z,69.69
2022-12-31T12:10:57.322Z,68.20
2022-12-31T12:13:59.680Z,68.62
2022-12-31T12:17:05.477Z,69.08
2022-12-31T12:20:18.549Z,69.09
2022-12-31T12:23:25.968Z,68.59
2022-12-31T12:26:35.698Z,68.59
2022-12-31T12:29:39.940Z,68.29
2022-12-31T12:32:51.900Z,64.81
2022-12-31T12:35:54.169Z,63.90
2022-12-31T12:39:05.927Z,61.95
2022-12-31T12:42:14.534Z,60.38
2022-12-31T12:45:20.638Z,59.34
2022-12-31T12:48:38.805Z,59.62
2022-12-31T12:52:27.884Z,59.81
2022-12-31T12:55:39.244Z,58.49
2022-12-31T12:58:54.742Z,58.61
2022-12-31T13:02:16.008Z,59.80
2022-12-31T13:05:42.154Z,60.99
2022-12-31T13:08:59.566Z,60.75
2022-12-31T13:12:17.713Z,58.28
2022-12-31T13:15:30.528Z,56.74
2022-12-31T13:18:51.532Z,57.06
2022-12-31T13:22:10.951Z,56.39
2022-12-31T13:25:42.308Z,56.17
2022-12-31T13:28:49.735Z,55.12
2022-12-31T13:31:57.119Z,55.39
2022-12-31T13:35:07.778Z,53.58
2022-12-31T13:38:19.512Z,53.05
2022-12-31T13:41:26.400Z,57.98
2022-12-31T13:44:41.935Z,61.59
2022-12-31T13:47:52.621Z,64.33
2022-12-31T13:51:01.347Z,66.74
2022-12-31T13:54:10.701Z,67.89
2022-12-31T13:57:41.294Z,69.15
2022-12-31T14:00:47.999Z,70.47
2022-12-31T14:03:52.955Z,71.41
2022-12-31T14:07:07.694Z,71.43
2022-12-31T14:10:20.590Z,72.06
2022-12-31T14:13:36.774Z,72.31
2022-12-31T14:16:44.855Z,73.07
2022-12-31T14:19:56.123Z,73.41
2022-12-31T14:23:24.669Z,72.85
2022-12-31T14:26:36.498Z,68.65
2022-12-31T14:29:56.259Z,66.93
2022-12-31T14:33:16.990Z,65.57
2022-12-31T14:36:34.658Z,66.36
2022-12-31T14:39:54.785Z,67.08
2022-12-31T14:43:25.382Z,70.21
2022-12-31T14:46:43.248Z,72.84
2022-12-31T14:50:06.699Z,75.64
2022-12-31T14:53:17.387Z,77.02
2022-12-31T14:56:31.724Z,77.74
2022-12-31T14:59:40.073Z,79.43
2022-12-31T15:02:53.499Z,79.89
2022-12-31T15:06:10.500Z,81.12
2022-12-31T15:09:48.261Z,81.53
2022-12-31T15:12:53.429Z,82.31
2022-12-31T15:16:26.705Z,82.29
2022-12-31T15:19:28.905Z,83.05
2022-12-31T15:22:40.210Z,83.41
2022-12-31T15:25:48.320Z,83.50
2022-12-31T15:28:58.231Z,84.00
2022-12-31T15:32:05.042Z,84.62
2022-12-31T15:35:22.359Z,85.32
2022-12-31T15:38:37.072Z,85.70
2022-12-31T15:42:18.583Z,86.08
2022-12-31T15:45:18.814Z,87.30
2022-12-31T15:48:26.856Z,87.66
2022-12-31T15:51:35.714Z,87.45
2022-12-31T15:54:45.613Z,87.17
2022-12-31T15:57:49.237Z,87.60
2022-12-31T16:01:19.191Z,87.89
2022-12-31T16:04:24.116Z,88.18
2022-12-31T16:07:28.655Z,88.38
2022-12-31T16:10:32.833Z,89.11
2022-12-31T16:13:42.745Z,89.68
2022-12-31T16:17:00.907Z,89.90
2022-12-31T16:20:25.638Z,90.21
2022-12-31T16:23:28.115Z,90.06
2022-12-31T16:26:46.498Z,89.14
2022-12-31T16:29:56.245Z,89.45
2022-12-31T16:33:14.293Z,89.23
2022-12-31T16:36:21.536Z,88.67
2022-12-31T16:39:25.387Z,88.95
2022-12-31T16:42:28.915Z,88.93
2022-12-31T16:45:34.521Z,89.46
2022-12-31T16:48:37.626Z,89.21
2022-12-31T16:51:40.209Z,89.53
2022-12-31T16:54:46.869Z,89.57
2022-12-31T16:57:57.964Z,90.39
2022-12-31T17:01:11.426Z,91.35
2022-12-31T17:04:19.215Z,91.33
2022-12-31T17:07:28.152Z,91.53
2022-12-31T17:10:36.185Z,91.80
2022-12-31T17:13:38.474Z,92.44
2022-12-31T17:17:03.494Z,93.37
2022-12-31T17:20:11.097Z,94.44
2022-12-31T17:23:23.412Z,94.57
2022-12-31T17:26:31.321Z,94.60
2022-12-31T17:29:34.066Z,95.07
2022-12-31T17:32:37.493Z,94.42
2022-12-31T17:35:42.366Z,93.90
2022-12-31T17:38:44.651Z,93.13
2022-12-31T17:41:49.680Z,93.41
2022-12-31T17:44:55.198Z,93.32
2022-12-31T17:47:59.827Z,92.95
2022-12-31T17:51:02.219Z,93.91
2022-12-31T17:54:12.406Z,93.87
2022-12-31T17:57:25.922Z,94.04
2022-12-31T18:00:28.327Z,93.63
2022-12-31T18:03:30.620Z,93.63
2022-12-31T18:06:32.780Z,94.13
2022-12-31T18:09:34.976Z,93.77
2022-12-31T18:12:37.255Z,93.34
2022-12-31T18:15:39.793Z,92.74
2022-12-31T18:18:43.771Z,92.57
2022-12-31T18:21:46.296Z,92.27
2022-12-31T18:24:51.902Z,92.27
2022-12-31T18:27:54.090Z,92.21
2022-12-31T18:30:56.580Z,92.09
2022-12-31T18:33:59.353Z,92.20
2022-12-31T18:37:01.681Z,92.28
2022-12-31T18:40:04.320Z,92.46
2022-12-31T18:43:13.155Z,92.75
2022-12-31T18:46:18.496Z,92.47
2022-12-31T18:49:20.871Z,92.55
2022-12-31T18:52:23.443Z,92.53
2022-12-31T18:55:33.570Z,92.72
2022-12-31T18:58:35.890Z,94.22
2022-12-31T19:01:40.103Z,94.13
2022-12-31T19:04:42.503Z,93.71
2022-12-31T19:07:44.728Z,93.75
2022-12-31T19:10:48.934Z,93.93
2022-12-31T19:13:51.185Z,93.91
2022-12-31T19:16:56.002Z,94.17
2022-12-31T19:20:03.235Z,94.56
2022-12-31T19:23:05.818Z,94.89
2022-12-31T19:26:13.906Z,95.10
2022-12-31T19:29:25.007Z,95.40
2022-12-31T19:32:27.246Z,95.63
2022-12-31T19:35:29.458Z,95.74
2022-12-31T19:38:34.578Z,95.56
2022-12-31T19:41:36.818Z,94.90
2022-12-31T19:44:39.022Z,95.23
2022-12-31T19:47:41.340Z,95.45
2022-12-31T19:50:46.172Z,95.74
2022-12-31T19:53:49.195Z,95.24
2022-12-31T19:56:51.535Z,95.05
2022-12-31T19:59:53.722Z,95.63
2022-12-31T20:02:56.087Z,95.52
2022-12-31T20:06:03.451Z,95.50
2022-12-31T20:09:05.878Z,95.52
2022-12-31T20:12:08.112Z,95.64
2022-12-31T20:15:10.848Z,95.12
2022-12-31T20:18:13.526Z,94.70
2022-12-31T20:21:19.295Z,94.23
2022-12-31T20:24:21.638Z,94.23
2022-12-31T20:27:23.916Z,94.19
2022-12-31T20:30:27.680Z,94.24
2022-12-31T20:33:30.350Z,94.15
2022-12-31T20:36:32.608Z,93.82
2022-12-31T20:39:34.934Z,93.99
2022-12-31T20:42:40.042Z,94.10
2022-12-31T20:45:42.406Z,94.11
2022-12-31T20:48:45.731Z,94.11
2022-12-31T20:51:52.080Z,93.68
2022-12-31T20:54:54.538Z,93.36
2022-12-31T20:57:56.727Z,93.51
2022-12-31T21:00:59.226Z,93.56
2022-12-31T21:04:05.476Z,93.60
2022-12-31T21:07:08.673Z,93.50
2022-12-31T21:10:10.925Z,93.40
2022-12-31T21:13:13.151Z,93.21
2022-12-31T21:16:15.565Z,93.11
2022-12-31T21:19:17.784Z,93.09
2022-12-31T21:22:20.188Z,92.86
2022-12-31T21:25:22.424Z,93.09
2022-12-31T21:28:25.838Z,92.99
2022-12-31T21:31:34.649Z,93.14
2022-12-31T21:34:36.863Z,92.91
2022-12-31T21:37:58.880Z,92.79
2022-12-31T21:41:04.000Z,92.42
2022-12-31T21:44:09.552Z,92.68
2022-12-31T21:47:35.619Z,92.86
2022-12-31T21:50:39.697Z,93.12
2022-12-31T21:53:42.005Z,93.37
2022-12-31T21:56:44.223Z,93.64
2022-12-31T22:00:39.463Z,93.48
2022-12-31T22:03:28.223Z,94.14
2022-12-31T22:06:32.431Z,94.44
2022-12-31T22:09:40.835Z,94.62
2022-12-31T22:12:43.483Z,94.69
2022-12-31T22:15:48.511Z,94.89
2022-12-31T22:18:50.848Z,94.90
2022-12-31T22:21:53.080Z,95.54
2022-12-31T22:24:59.285Z,95.89
2022-12-31T22:31:29.911Z,95.98
2022-12-31T22:34:32.293Z,95.28
2022-12-31T22:41:06.849Z,95.77
2022-12-31T22:44:09.059Z,96.06
2022-12-31T22:47:11.246Z,96.13
2022-12-31T22:50:13.441Z,95.89
2022-12-31T22:53:15.620Z,95.37
2022-12-31T22:56:19.057Z,95.82
2022-12-31T22:59:21.629Z,96.50
2022-12-31T23:02:24.032Z,96.55
2022-12-31T23:05:26.222Z,96.99
2022-12-31T23:08:28.421Z,96.91
2022-12-31T23:11:31.239Z,95.83
2022-12-31T23:14:52.213Z,95.85
2022-12-31T23:18:12.589Z,94.74
2022-12-31T23:21:34.353Z,94.52
2022-12-31T23:24:37.012Z,94.08
2022-12-31T23:27:39.236Z,93.78
2022-12-31T23:30:42.639Z,93.62
2022-12-31T23:33:44.877Z,93.38
2022-12-31T23:36:47.122Z,93.20
2022-12-31T23:39:49.355Z,93.07
2022-12-31T23:42:51.617Z,92.79
2022-12-31T23:45:54.024Z,92.84
2022-12-31T23:48:56.292Z,92.89
2022-12-31T23:51:58.531Z,93.31
2022-12-31T23:55:00.775Z,93.60
2022-12-31T23:58:03.055Z,93.98
